Hidalgo, Texas
Current Conditions -  °F | °C
As of 6:53 AM on Saturday 25 Oct 2014 (Local Time) from KMFE Reporting Station
Haze Haze  
Wind Chill: 64°   Ceiling: Unl
Heat Index: 64°   Visibility: 3mi
Dew Point: 63°   Wind: 3mph
Humidity: 96%   Direction: 280°W
Pressure: 30.14"   Gusts: NA
Location:  26.1°N, 98.26°W
Report Text: KMFE 251153Z 28003KT 3SM BR CLR 18/17 A3014 RMK AO2 SLP203 T01780172 10200 20178 51004
Loading
Personal Weather Stations






























Interactive Weather Map
Tropical Storm Tracking
New forecast layout! Learn more

10-Day Weather Forecast

Advertisements
Track Severe Weather on mobile